• Join FlightAware (Why Join?)
  • Login
  • US Flag 
Gobble Gobble! 
08:46AM EST


 

Airport Tracker/Info


-or-


 

Live Flight TrackerFlight Track Log ✈ AAL832 ✈ 06-May-2013 ✈ KLAX - KORD

Flight Track Log - Related Links

Times and Time Zones

All times are in EDT time to prevent confusion due to time zone crossing. See the AAL832 flight status page for this flight to view local times or setup timezone preferences in your user account.

Time Position Orientation Groundspeed Altitude Reporting Facility
EDT Latitude Longitude Course Direction KTS MPH feet Rate Location/Type
12:24PM 33.9564 -118.3497 90° East 206 237 2,300  Level Los Angeles Center
12:25PM 33.9572 -118.2669 89° East 244 281 4,500 2,220 Climbing Los Angeles Center
12:26PM 33.7576 -118.6102 132° Southeast  Level FlightAware Approximate
12:26PM 33.9442 -118.1797 100° East 262 302 6,900  Level Los Angeles Center
12:27PM 33.6792 -118.4920 101° East  Level FlightAware Approximate
12:28PM 33.6387 -118.3467 116° Southeast  Level FlightAware Approximate
12:28PM 33.8911 -118.0083 110° East 271 312 8,700  Level Los Angeles Center
12:29PM 33.6333 -118.1939 90° East  Level FlightAware Approximate
12:30PM 33.7667 -117.8915 90° East  Level FlightAware Approximate
12:30PM 33.7800 -117.8583 90° East 306 352 14,100  Level Los Angeles Center
12:31PM 33.7594 -117.7617 104° East 366 421 16,300 2,640 Climbing Los Angeles Center
12:32PM 33.7469 -117.5725 94° East 401 461 19,600 2,340 Climbing Los Angeles Center
12:34PM 33.7228 -117.2769 96° East 447 514 23,600 1,920 Climbing Los Angeles Center
12:35PM 33.7092 -117.1200 96° East 468 539 25,700 1,800 Climbing Los Angeles Center
12:37PM 33.6886 -116.9583 99° East  Level FlightAware Approximate
12:37PM 33.6831 -116.7906 99° East 497 572 29,200  Level Los Angeles Center
12:40PM 33.6500 -116.4886 90° East  Level FlightAware Approximate
12:42PM 33.7836 -116.0922 68° East 519 597 35,800  Level Los Angeles Center
12:44PM 33.8966 -115.8422 68° East  Level Estimated
12:44PM 33.9419 -115.6708 68° East 542 624 37,000  Level Albuquerque Center
12:45PM 33.9806 -115.5661 66° East 537 618 37,000  Level Los Angeles Center
12:46PM 34.0633 -115.3503 65° Northeast 529 609 37,000  Level Albuquerque Center
12:47PM 33.9839 -115.5150 68° East  Level FlightAware Approximate
12:47PM 34.1019 -115.2447 66° East 528 608 37,000  Level Los Angeles Center
12:48PM 34.1500 -115.1164 66° East 527 606 37,000  Level Los Angeles Center
12:49PM 34.2219 -114.9244 66° East 524 603 37,000  Level Los Angeles Center
12:50PM 34.2817 -114.7650 66° East 522 601 37,000  Level Los Angeles Center
12:51PM 34.3500 -114.5736 67° East 519 597 37,000  Level Los Angeles Center
12:52PM 34.4281 -114.3581 66° East 518 596 37,000  Level Albuquerque Center
12:53PM 34.4953 -114.1694 67° East 512 589 37,000  Level Albuquerque Center
12:55PM 34.5517 -114.0122 66° East 511 588 37,000  Level Albuquerque Center
12:56PM 34.6061 -113.8550 67° East 508 585 37,000  Level Albuquerque Center
12:57PM 34.6619 -113.6994 66° East 504 580 37,000  Level Albuquerque Center
12:58PM 34.7194 -113.5333 67° East 505 581 37,000  Level Albuquerque Center
12:59PM 34.7747 -113.3769 67° East 506 582 37,000  Level Albuquerque Center
01:00PM 34.8603 -113.1272 67° East 509 586 37,000  Level Los Angeles Center
01:01PM 34.8922 -113.0342 67° East 504 580 37,000  Level Albuquerque Center
01:02PM 34.9444 -112.8786 68° East 503 579 37,000  Level Albuquerque Center
01:04PM 35.0478 -112.5742 67° East 497 572 37,000  Level Denver Center
01:04PM 35.0814 -112.4756 67° East 503 579 37,000  Level Los Angeles Center
01:05PM 35.1025 -112.4133 67° East 502 578 37,000  Level Albuquerque Center
01:06PM 35.1969 -112.1303 68° East 505 581 37,000  Level Los Angeles Center
01:07PM 35.2172 -112.0683 68° East 503 579 37,000  Level Albuquerque Center
01:09PM 35.3008 -111.8142 68° East 506 582 37,000  Level Los Angeles Center
01:09PM 35.3219 -111.7511 68° East 506 582 37,000  Level Albuquerque Center
01:10PM 35.3733 -111.5903 69° East 508 585 37,000  Level Albuquerque Center
01:12PM 35.4964 -111.2164 68° East 508 585 37,000  Level Denver Center
01:13PM 35.5553 -111.0381 68° East 506 582 37,000  Level Denver Center
01:14PM 35.5939 -110.9086 70° East 504 580 37,000  Level Albuquerque Center
01:15PM 35.6528 -110.7308 68° East 502 578 37,000  Level Albuquerque Center
01:18PM 35.7633 -110.3781 69° East 500 575 37,000  Level Denver Center
01:18PM 35.8033 -110.2472 69° East 499 574 37,000  Level Albuquerque Center
01:19PM 35.8517 -110.0956 68° East 498 573 37,000  Level Albuquerque Center
01:20PM 35.8767 -110.0200 68° East 497 572 37,000  Level Denver Center
01:21PM 35.9225 -109.8678 70° East 497 572 37,000  Level Denver Center
01:22PM 36.0072 -109.5908 69° East 490 564 37,000  Level Albuquerque Center
01:23PM 36.0531 -109.4408 69° East 487 560 37,000  Level Albuquerque Center
01:26PM 36.1288 -109.1345 69° East  Level FlightAware Approximate
01:26PM 36.1725 -109.0461 69° East 476 548 37,000  Level Denver Center
01:27PM 36.2094 -108.9208 70° East 476 548 37,000  Level Denver Center
01:30PM 36.2921 -108.6405 70° East  Level FlightAware Approximate
01:31PM 36.4061 -108.2531 70° East 475 547 37,000  Level Denver Center
01:32PM 36.4497 -108.1053 70° East 477 549 37,000  Level Denver Center
01:33PM 36.4983 -107.9319 71° East 476 548 37,000  Level Denver Center
01:35PM 36.5540 -107.7362 70° East  Level FlightAware Approximate
01:35PM 36.5908 -107.6117 70° East 474 545 37,000  Level Denver Center
01:36PM 36.6325 -107.4639 71° East 473 544 37,000  Level Denver Center
01:37PM 36.5909 -107.6025 70° East  Level FlightAware Approximate
01:38PM 36.6894 -107.2650 70° East 477 549 37,000  Level Denver Center
01:39PM 36.7303 -107.1142 71° East 478 550 37,000  Level Denver Center
01:40PM 36.7800 -106.9378 71° East 481 554 37,000  Level Denver Center
01:41PM 36.8231 -106.7875 70° East 482 555 37,000  Level Denver Center
01:42PM 36.8714 -106.6100 71° East 483 556 37,000  Level Denver Center
01:43PM 36.9128 -106.4578 71° East 483 556 37,000  Level Denver Center
01:44PM 36.9622 -106.2803 71° East 484 557 37,000  Level Denver Center
01:45PM 37.0050 -106.1194 72° East 484 557 37,000  Level Denver Center
01:46PM 37.0419 -105.9750 72° East 483 556 37,000  Level Denver Center
01:47PM 37.0928 -105.7889 71° East 482 555 37,000  Level Denver Center
01:48PM 37.1342 -105.6347 71° East 486 559 37,000  Level Denver Center
01:49PM 37.1819 -105.4550 71° East 486 559 37,000  Level Denver Center
01:51PM 37.2322 -105.2414 73° East  Level FlightAware Approximate
01:52PM 37.3142 -104.9378 72° East 489 563 37,000  Level Denver Center
01:53PM 37.3606 -104.7553 72° East 490 564 37,000  Level Denver Center
01:55PM 37.4322 -104.4742 72° East 489 563 37,000  Level Kansas City Center
01:55PM 37.4450 -104.4178 74° East 488 562 37,000  Level Denver Center
01:56PM 37.4775 -104.2881 72° East 488 562 37,000  Level Denver Center
01:57PM 37.5225 -104.1064 73° East 489 563 37,000  Level Denver Center
01:58PM 37.4985 -104.1770 72° East  Level FlightAware Approximate
01:59PM 37.6108 -103.7558 72° East 488 562 37,000  Level Denver Center
02:01PM 37.6742 -103.4886 73° East 481 554 37,000  Level Kansas City Center
02:03PM 37.7289 -103.2647 73° East 484 557 37,000  Level Denver Center
02:04PM 37.7731 -103.0833 73° East 484 557 37,000  Level Denver Center
02:05PM 37.8086 -102.9278 74° East 482 555 37,000  Level Denver Center
02:06PM 37.8789 -102.6317 73° East 485 558 37,000  Level Kansas City Center
02:07PM 37.9144 -102.4747 74° East 485 558 37,000  Level Kansas City Center
02:08PM 37.9278 -102.4217 72° East 487 560 37,000 600 Level Denver Center
02:10PM 38.0353 -101.9506 74° East 482 555 38,900 600 Climbing Kansas City Center
02:11PM 38.0531 -101.8736 74° East 478 550 39,000  Climbing Denver Center
02:13PM 38.1061 -101.6369 74° East 483 556 39,000  Level Kansas City Center
02:13PM 38.1239 -101.5578 74° East 485 558 39,000  Level Denver Center
02:15PM 38.1825 -101.2914 74° East 488 562 39,000  Level Kansas City Center
02:17PM 38.2376 -101.0008 72° East  Level FlightAware Approximate
02:18PM 38.2981 -100.7581 74° East 489 563 39,000  Level Kansas City Center
02:19PM 38.3328 -100.5947 75° East 494 568 39,000  Level Kansas City Center
02:20PM 38.3728 -100.4061 75° East 493 567 39,000  Level Kansas City Center
02:20PM 38.3908 -100.3261 74° East 493 567 39,000  Level Denver Center
02:22PM 38.4411 -100.0850 75° East 488 562 39,000  Level Kansas City Center
02:22PM 38.4628 -99.9781 75° East 490 564 39,000  Level Denver Center
02:23PM 38.4956 -99.8214 75° East 481 554 39,000  Level Denver Center
02:24PM 38.4632 -99.9139 74° East  Level FlightAware Approximate
02:24PM 38.5333 -99.6367 75° East 481 554 39,000  Level Denver Center
02:25PM 38.5492 -99.5586 75° East 478 550 39,000  Level Kansas City Center
02:28PM 38.6131 -99.2384 76° East  Level FlightAware Approximate
02:28PM 38.6478 -99.0653 76° East 477 549 39,000  Level Kansas City Center
02:29PM 38.6828 -98.8969 75° East 484 557 39,000  Level Kansas City Center
02:30PM 38.7158 -98.7308 76° East 480 552 39,000  Level Kansas City Center
02:31PM 38.7483 -98.5639 76° East 480 552 39,000  Level Kansas City Center
02:32PM 38.7869 -98.3614 76° East 484 557 39,000  Level Kansas City Center
02:33PM 38.8189 -98.1936 76° East 483 556 39,000  Level Kansas City Center
02:34PM 38.8511 -98.0242 78° East 486 559 39,000  Level Kansas City Center
02:35PM 38.8541 -97.9882 78° East  Level FlightAware Approximate
02:37PM 38.9729 -97.6921 65° Northeast  Level Estimated
02:37PM 38.9600 -97.4931 65° Northeast 481 554 39,000  Level Kansas City Center
02:38PM 38.9972 -97.3486 72° East 475 547 39,000  Level Kansas City Center
02:40PM 39.0403 -97.1762 72° East  Level FlightAware Approximate
02:45PM 39.1894 -96.3392 72° East 472 543 39,000  Level Kansas City Center
02:46PM 39.1967 -96.1772 87° East 473 544 39,000  Level Kansas City Center
02:47PM 39.3069 -96.0912 72° East  Level FlightAware Approximate
02:48PM 39.3458 -95.9363 72° East  Level FlightAware Approximate
02:48PM 39.2117 -95.8303 87° East 467 537 39,000  Level Kansas City Center
02:49PM 39.3846 -95.7812 72° East  Level FlightAware Approximate
02:49PM 39.2225 -95.6439 86° East 465 535 39,000  Level Kansas City Center
02:50PM 39.4231 -95.6259 72° East  Level FlightAware Approximate
02:50PM 39.2308 -95.4853 86° East 462 532 39,000  Level Kansas City Center
02:51PM 39.2414 -95.3025 86° East 462 532 39,000  Level Kansas City Center
02:52PM 39.2514 -95.1275 86° East 457 526 39,000  Level Kansas City Center
02:53PM 39.2611 -94.9764 85° East 457 526 39,000  Level Kansas City Center
02:55PM 39.3421 -94.7306 63° Northeast  Level FlightAware Approximate
02:55PM 39.3422 -94.6586 63° Northeast 453 521 39,000  Level Kansas City Center
02:56PM 39.4067 -94.4967 63° Northeast 452 520 39,000  Level Kansas City Center
02:57PM 39.4611 -94.3569 63° Northeast 455 524 39,000  Level Kansas City Center
02:59PM 39.5792 -94.0514 63° Northeast 459 528 39,000  Level Kansas City Center
03:01PM 39.6978 -93.7414 63° Northeast 458 527 39,000  Level Kansas City Center
03:02PM 39.7558 -93.5839 64° Northeast 463 533 39,000  Level Kansas City Center
03:04PM 39.8478 -93.3475 63° Northeast 461 531 39,000  Level Chicago Center
03:04PM 39.8697 -93.2897 64° Northeast 458 527 39,000  Level Kansas City Center
03:05PM 39.9242 -93.1414 64° Northeast 459 528 39,000  Level Kansas City Center
03:06PM 39.9794 -92.9928 64° Northeast 459 528 39,000  Level Kansas City Center
03:08PM 40.0972 -92.6736 64° Northeast 454 522 39,000  Level Kansas City Center
03:10PM 40.1771 -92.4529 65° Northeast  Level FlightAware Approximate
03:10PM 40.2097 -92.3686 65° Northeast 448 516 39,000  Level Kansas City Center
03:12PM 40.2695 -92.2007 65° Northeast  Level FlightAware Approximate
03:12PM 40.2983 -92.1206 65° Northeast 451 519 38,500  Level Chicago Center
03:13PM 40.3622 -91.9414 65° Northeast 457 526 37,300 -1,080 Descending Chicago Center
03:13PM 40.3717 -91.9119 67° East 455 524 37,100 -960 Descending Kansas City Center
03:15PM 40.4222 -91.7717 65° Northeast 438 504 36,100 -1,020 Descending Kansas City Center
03:16PM 40.5158 -91.5122 65° Northeast 444 511 34,300 -1,140 Descending Chicago Center
03:17PM 40.5681 -91.3642 65° Northeast 450 518 33,000 -660 Descending Chicago Center
03:18PM 40.6208 -91.2081 66° East 444 511 33,000 -240 Level Chicago Center
03:19PM 40.6722 -91.0586 66° East 447 514 32,600 -780 Descending Chicago Center
03:20PM 40.7336 -90.8731 66° East 458 527 31,400 -1,080 Descending Chicago Center
03:21PM 40.7850 -90.7206 66° East 456 525 30,400 -1,020 Descending Chicago Center
03:24PM 40.8864 -90.4222 66° East 443 510 28,400 -960 Descending Chicago Center
03:25PM 40.9364 -90.2739 66° East 439 505 27,500 -840 Descending Chicago Center
03:27PM 41.0328 -89.9822 66° East 429 494 25,900 -840 Descending Chicago Center
03:28PM 41.0889 -89.8089 67° East 422 486 24,900 -1,440 Descending Chicago Center
03:31PM 41.3530 -89.0672 61° Northeast  Level FlightAware Approximate
03:32PM 41.2864 -89.2781 61° Northeast 390 449 18,700  Level Chicago Center
03:34PM 41.4076 -89.0433 55° Northeast  Level Estimated
03:35PM 41.4333 -88.9000 55° Northeast 359 413 13,300  Level Chicago TRACON
03:36PM 41.4814 -88.7839 61° Northeast 355 409 11,600 -1,140 Descending Chicago Center
03:37PM 41.5247 -88.6764 62° Northeast 331 381 11,000 -300 Descending Chicago Center
03:38PM 41.5631 -88.5772 63° Northeast 305 351 11,000 -60 Level Chicago Center
03:39PM 41.5939 -88.4811 67° East 286 329 10,900 -540 Descending Chicago Center
03:40PM 41.6261 -88.3864 66° East 281 323 9,900 -1,260 Descending Chicago Center
03:41PM 41.6636 -88.2758 66° East 271 312 8,300 -1,020 Descending Chicago Center
03:43PM 41.7333 -88.1667 49° Northeast 218 251 7,200 -720 Descending Chicago TRACON
03:43PM 41.7419 -88.1483 58° Northeast 219 252 6,900 -1,080 Descending Chicago Center
03:45PM 41.8000 -88.0833 40° Northeast 173 199 5,200 -1,200 Descending Chicago TRACON
03:46PM 41.8333 -88.0333 48° Northeast 167 192 3,900 -1,200 Descending Chicago TRACON
03:46PM 41.8494 -88.0236 24° Northeast 168 193 3,400 -1,020 Descending Chicago Center
03:47PM 41.8833 -87.9833 41° Northeast 167 192 2,700 -720 Descending Chicago TRACON
03:49PM 41.9425 -87.9153 41° Northeast 130 150 1,200 -660 Descending Chicago Center